createdAt,value
2024-05-09T00:00:40.244Z,101415.68
2024-05-09T00:01:38.629Z,101411.2
2024-05-09T00:02:41.151Z,101414.59
2024-05-09T00:03:41.651Z,101410.25
2024-05-09T00:04:40.025Z,101411.59
2024-05-09T00:05:44.311Z,101412.95
2024-05-09T00:06:41.941Z,101408.52
2024-05-09T00:07:42.431Z,101412.14
2024-05-09T00:08:43.394Z,101411.5
2024-05-09T00:09:43.043Z,101411.38
2024-05-09T00:10:43.567Z,101410.34
2024-05-09T00:11:44.088Z,101410.12
2024-05-09T00:12:44.188Z,101409.99
2024-05-09T00:13:44.971Z,101408.78
2024-05-09T00:14:45.030Z,101412.2
2024-05-09T00:15:45.535Z,101406.12
2024-05-09T00:16:45.905Z,101409.62
2024-05-09T00:17:46.359Z,101411.02
2024-05-09T00:18:46.847Z,101410.45
2024-05-09T00:19:47.113Z,101409.72
2024-05-09T00:20:47.481Z,101406.64
2024-05-09T00:21:47.724Z,101410.88
2024-05-09T00:22:48.090Z,101408.32
2024-05-09T00:23:48.550Z,101407.54
2024-05-09T00:24:48.893Z,101408.3
2024-05-09T00:25:49.274Z,101410.12
2024-05-09T00:26:49.729Z,101409.74
2024-05-09T00:27:49.991Z,101409.5
2024-05-09T00:28:50.496Z,101414.57
2024-05-09T00:29:50.870Z,101413.72
2024-05-09T00:30:51.263Z,101416.58
2024-05-09T00:31:51.549Z,101414.61
2024-05-09T00:32:52.261Z,101414.89
2024-05-09T00:33:53.770Z,101415.75
2024-05-09T00:34:52.741Z,101416.73
2024-05-09T00:35:53.036Z,101414.73
2024-05-09T00:36:53.670Z,101415.53
2024-05-09T00:37:54.128Z,101414.88
2024-05-09T00:38:54.438Z,101416.19
2024-05-09T00:39:54.648Z,101414.34
2024-05-09T00:40:55.085Z,101410.33
2024-05-09T00:41:55.348Z,101412.66
2024-05-09T00:42:55.850Z,101411.72
2024-05-09T00:43:56.249Z,101404.73
2024-05-09T00:44:56.645Z,101405.34
2024-05-09T00:45:57.066Z,101406.8
2024-05-09T00:46:57.440Z,101406.3
2024-05-09T00:48:00.374Z,101405.52
2024-05-09T00:48:58.205Z,101404.18
2024-05-09T00:49:59.106Z,101406.62
2024-05-09T00:50:59.386Z,101408.99
2024-05-09T00:51:59.657Z,101404.16
2024-05-09T00:53:00.244Z,101405.38
2024-05-09T00:54:00.120Z,101409.13
2024-05-09T00:55:01.482Z,101407.55
2024-05-09T00:56:01.608Z,101404.52
2024-05-09T00:57:03.221Z,101401.2
2024-05-09T00:58:02.534Z,101402.69
2024-05-09T00:59:02.881Z,101404.95
2024-05-09T01:00:02.439Z,101406.95
2024-05-09T01:01:03.229Z,101406.13
2024-05-09T01:02:03.727Z,101409.72
2024-05-09T01:03:03.805Z,101401.36
2024-05-09T01:04:04.486Z,101405.98
2024-05-09T01:05:04.920Z,101401.86
2024-05-09T01:06:05.096Z,101405.61
2024-05-09T01:07:05.028Z,101401.11
2024-05-09T01:08:06.309Z,101403.28
2024-05-09T01:09:05.965Z,101401.69
2024-05-09T01:10:13.815Z,101399.27
2024-05-09T01:11:10.065Z,101400.06
2024-05-09T01:12:10.464Z,101404.56
2024-05-09T01:13:10.695Z,101403.12
2024-05-09T01:14:11.183Z,101402.62
2024-05-09T01:15:11.418Z,101399.52
2024-05-09T01:16:13.504Z,101401.11
2024-05-09T01:17:12.633Z,101394.17
2024-05-09T01:18:14.002Z,101395.16
2024-05-09T01:19:24.648Z,101396.59
2024-05-09T01:20:22.868Z,101394.45
2024-05-09T01:21:20.287Z,101397.15
2024-05-09T01:22:21.734Z,101391.4
2024-05-09T01:23:21.097Z,101392.21
2024-05-09T01:24:21.433Z,101388.84
2024-05-09T01:25:21.659Z,101386.67
2024-05-09T01:26:22.158Z,101391.12
2024-05-09T01:27:22.683Z,101388.19
2024-05-09T01:28:22.894Z,101387.72
2024-05-09T01:29:23.504Z,101383.77
2024-05-09T01:30:31.310Z,101382.16
2024-05-09T01:31:26.487Z,101381.99
2024-05-09T01:32:27.104Z,101378.84
2024-05-09T01:33:27.830Z,101377.07
2024-05-09T01:34:27.626Z,101380.34
2024-05-09T01:35:28.192Z,101375.19
2024-05-09T01:36:28.455Z,101374.8
2024-05-09T01:37:28.986Z,101369.89
2024-05-09T01:38:29.472Z,101374.91
2024-05-09T01:39:29.439Z,101369.6
2024-05-09T01:40:37.224Z,101370.42
2024-05-09T01:41:32.121Z,101374.92
2024-05-09T01:42:32.344Z,101372.22
2024-05-09T01:43:32.904Z,101374.42
2024-05-09T01:44:33.182Z,101376.09
2024-05-09T01:45:33.583Z,101372.53
2024-05-09T01:46:34.070Z,101373.04
2024-05-09T01:47:34.454Z,101375
2024-05-09T01:48:34.879Z,101371.84
2024-05-09T01:49:36.337Z,101368.48
2024-05-09T01:50:40.033Z,101369.19
2024-05-09T01:51:39.846Z,101369.79
2024-05-09T01:52:40.139Z,101368.93
2024-05-09T01:53:40.645Z,101369.41
2024-05-09T01:54:40.765Z,101374.48
2024-05-09T01:55:41.621Z,101374.56
2024-05-09T01:56:41.819Z,101373.61
2024-05-09T01:57:41.935Z,101375.16
2024-05-09T01:58:42.232Z,101376.02
2024-05-09T01:59:42.853Z,101374.18
2024-05-09T02:00:43.755Z,101374.39
2024-05-09T02:01:56.280Z,101369.58
2024-05-09T02:02:45.628Z,101373.58
2024-05-09T02:03:45.846Z,101374.1
2024-05-09T02:04:46.924Z,101373.73
2024-05-09T02:05:48.000Z,101372.67
2024-05-09T02:06:46.687Z,101370.36
2024-05-09T02:07:47.189Z,101374.17
2024-05-09T02:08:47.547Z,101375.52
2024-05-09T02:09:51.303Z,101371.06
2024-05-09T02:10:49.642Z,101376.38
2024-05-09T02:11:49.833Z,101377.33
2024-05-09T02:12:49.490Z,101378.94
2024-05-09T02:13:50.106Z,101383.81
2024-05-09T02:14:51.550Z,101386.39
2024-05-09T02:15:50.729Z,101382.39
2024-05-09T02:16:51.289Z,101383.54
2024-05-09T02:17:51.728Z,101383.97
2024-05-09T02:18:52.163Z,101382.85
2024-05-09T02:19:52.373Z,101378.23
2024-05-09T02:20:52.575Z,101380.11
2024-05-09T02:21:52.904Z,101382.78
2024-05-09T02:22:53.383Z,101378.66
2024-05-09T02:23:53.771Z,101383.12
2024-05-09T02:24:54.067Z,101381.69
2024-05-09T02:25:54.423Z,101380.2
2024-05-09T02:26:54.926Z,101377.38
2024-05-09T02:27:55.340Z,101378.39
2024-05-09T02:28:55.873Z,101377.78
2024-05-09T02:29:55.955Z,101376.56
2024-05-09T02:30:56.260Z,101377.36
2024-05-09T02:31:56.853Z,101376.06
2024-05-09T02:32:57.278Z,101373.01
2024-05-09T02:33:57.631Z,101373.13
2024-05-09T02:34:57.951Z,101371.42
2024-05-09T02:35:58.365Z,101373.43
2024-05-09T02:36:58.774Z,101374.57
2024-05-09T02:37:59.063Z,101372.58
2024-05-09T02:38:59.499Z,101378.56
2024-05-09T02:39:59.903Z,101374.39
2024-05-09T02:41:00.151Z,101375.49
2024-05-09T02:42:00.536Z,101376.8
2024-05-09T02:43:01.007Z,101370.31
2024-05-09T02:44:01.417Z,101374.36
2024-05-09T02:45:01.696Z,101374.74
2024-05-09T02:46:02.314Z,101373.88
2024-05-09T02:47:02.515Z,101374.25
2024-05-09T02:48:03.345Z,101373.98
2024-05-09T02:49:03.327Z,101373.55
2024-05-09T02:50:05.974Z,101374.2
2024-05-09T02:51:04.396Z,101373.35
2024-05-09T02:52:04.750Z,101375.95
2024-05-09T02:53:05.283Z,101376.59
2024-05-09T02:54:05.147Z,101375.6
2024-05-09T02:55:05.649Z,101377.14
2024-05-09T02:56:06.615Z,101376.04
2024-05-09T02:57:06.276Z,101372.2
2024-05-09T02:58:09.959Z,101374.89
2024-05-09T02:59:07.629Z,101376.27
2024-05-09T03:00:15.184Z,101377.69
2024-05-09T03:01:11.488Z,101375.65
2024-05-09T03:02:11.857Z,101374.98
2024-05-09T03:03:14.390Z,101373.94
2024-05-09T03:04:13.130Z,101372.06
2024-05-09T03:05:13.698Z,101374.2
2024-05-09T03:06:14.224Z,101368.3
2024-05-09T03:07:14.481Z,101374.08
2024-05-09T03:08:14.879Z,101371.46
2024-05-09T03:09:15.053Z,101373.61
2024-05-09T03:10:22.248Z,101367.3
2024-05-09T03:11:25.269Z,101366.3
2024-05-09T03:12:22.832Z,101370.62
2024-05-09T03:13:23.274Z,101369.81
2024-05-09T03:14:23.603Z,101370.59
2024-05-09T03:15:23.992Z,101368.5
2024-05-09T03:16:24.330Z,101368.08
2024-05-09T03:17:24.974Z,101372.31
2024-05-09T03:18:25.231Z,101371.59
2024-05-09T03:19:25.504Z,101371.33
2024-05-09T03:20:32.562Z,101372.68
2024-05-09T03:21:27.207Z,101370.2
2024-05-09T03:22:28.247Z,101370.42
2024-05-09T03:23:28.213Z,101371.27
2024-05-09T03:24:28.362Z,101372.25
2024-05-09T03:25:28.787Z,101367.52
2024-05-09T03:26:29.263Z,101370.75
2024-05-09T03:27:29.517Z,101369.31
2024-05-09T03:28:29.991Z,101371.97
2024-05-09T03:29:30.414Z,101372.78
2024-05-09T03:30:39.503Z,101371.91
2024-05-09T03:31:34.970Z,101371.95
2024-05-09T03:32:35.460Z,101372.95
2024-05-09T03:33:35.954Z,101364.41
2024-05-09T03:34:38.472Z,101361.94
2024-05-09T03:35:36.376Z,101362.2
2024-05-09T03:36:41.548Z,101363.16
2024-05-09T03:37:38.899Z,101365.59
2024-05-09T03:38:39.689Z,101357.66
2024-05-09T03:39:39.729Z,101361.98
2024-05-09T03:40:47.695Z,101361.23
2024-05-09T03:41:42.277Z,101361.06
2024-05-09T03:42:44.525Z,101360.83
2024-05-09T03:43:43.985Z,101366.92
2024-05-09T03:44:43.340Z,101367.91
2024-05-09T03:45:43.992Z,101364.31
2024-05-09T03:46:44.346Z,101365.09
2024-05-09T03:47:44.718Z,101359.77
2024-05-09T03:48:45.134Z,101357.81
2024-05-09T03:49:45.261Z,101358.89
2024-05-09T03:50:45.799Z,101360.7
2024-05-09T03:51:46.169Z,101362.06
2024-05-09T03:52:46.610Z,101364.66
2024-05-09T03:53:47.020Z,101366.2
2024-05-09T03:54:47.213Z,101368.2
2024-05-09T03:55:48.503Z,101364.11
2024-05-09T03:56:48.849Z,101362.62
2024-05-09T03:57:49.292Z,101362.38
2024-05-09T03:58:49.691Z,101359.32
2024-05-09T03:59:49.888Z,101361.92
2024-05-09T04:00:50.386Z,101360.77
2024-05-09T04:01:51.095Z,101362.48
2024-05-09T04:02:51.164Z,101359.36
2024-05-09T04:03:51.769Z,101358.47
2024-05-09T04:04:52.270Z,101360.1
2024-05-09T04:05:52.320Z,101359.51
2024-05-09T04:06:52.824Z,101357.7
2024-05-09T04:07:54.743Z,101362.23
2024-05-09T04:08:53.745Z,101359
2024-05-09T04:09:53.789Z,101359.23
2024-05-09T04:10:54.494Z,101356.59
2024-05-09T04:11:54.988Z,101352.28
2024-05-09T04:12:55.199Z,101354.62
2024-05-09T04:13:55.552Z,101353.74
2024-05-09T04:14:55.943Z,101353.34
2024-05-09T04:15:56.265Z,101353.27
2024-05-09T04:16:56.712Z,101358.22
2024-05-09T04:17:57.515Z,101355.81
2024-05-09T04:18:57.655Z,101355.56
2024-05-09T04:19:57.916Z,101356.75
2024-05-09T04:20:58.479Z,101352.08
2024-05-09T04:21:58.671Z,101354.55
2024-05-09T04:22:59.012Z,101352.11
2024-05-09T04:23:59.698Z,101354.27
2024-05-09T04:25:00.174Z,101351.44
2024-05-09T04:26:00.495Z,101349.55
2024-05-09T04:27:00.726Z,101356.08
2024-05-09T04:28:01.306Z,101355.59
2024-05-09T04:29:01.759Z,101353.33
2024-05-09T04:30:01.983Z,101356
2024-05-09T04:31:02.522Z,101355.86
2024-05-09T04:32:06.277Z,101357.41
2024-05-09T04:33:04.035Z,101357.55
2024-05-09T04:34:04.677Z,101355.84
2024-05-09T04:35:05.038Z,101357.72
2024-05-09T04:36:05.603Z,101353.27
2024-05-09T04:37:05.314Z,101356.33
2024-05-09T04:38:06.300Z,101359.27
2024-05-09T04:39:05.937Z,101358.95
2024-05-09T04:40:11.272Z,101361.31
2024-05-09T04:41:06.591Z,101357.5
2024-05-09T04:42:06.974Z,101358.52
2024-05-09T04:43:14.171Z,101358.58
2024-05-09T04:44:11.512Z,101351.5
2024-05-09T04:45:12.005Z,101348.54
2024-05-09T04:46:12.315Z,101350.1
2024-05-09T04:47:12.700Z,101352.56
2024-05-09T04:48:13.298Z,101352.1
2024-05-09T04:49:13.629Z,101351.78
2024-05-09T04:50:20.844Z,101352.05
2024-05-09T04:51:17.706Z,101351.94
2024-05-09T04:52:18.108Z,101352.02
2024-05-09T04:53:18.641Z,101349.61
2024-05-09T04:54:26.248Z,101344.89
2024-05-09T04:55:21.579Z,101344.91
2024-05-09T04:56:21.938Z,101346.72
2024-05-09T04:57:22.231Z,101344.87
2024-05-09T04:58:22.336Z,101345.92
2024-05-09T04:59:22.778Z,101342.54
2024-05-09T05:00:32.328Z,101337.53
2024-05-09T05:01:24.058Z,101345.75
2024-05-09T05:02:24.447Z,101336.88
2024-05-09T05:03:25.057Z,101341.91
2024-05-09T05:04:24.988Z,101341.3
2024-05-09T05:05:25.276Z,101335.42
2024-05-09T05:06:25.888Z,101335.57
2024-05-09T05:07:25.990Z,101333.52
2024-05-09T05:08:26.429Z,101331.22
2024-05-09T05:09:26.668Z,101329.38
2024-05-09T05:10:33.789Z,101328.86
2024-05-09T05:11:29.154Z,101329.93
2024-05-09T05:12:29.314Z,101329.98
2024-05-09T05:13:32.292Z,101324.17
2024-05-09T05:14:30.295Z,101320.11
2024-05-09T05:15:30.258Z,101322.89
2024-05-09T05:16:30.558Z,101323.13
2024-05-09T05:17:30.946Z,101321.17
2024-05-09T05:18:31.354Z,101322.33
2024-05-09T05:19:31.782Z,101320.45
2024-05-09T05:20:33.833Z,101316.8
2024-05-09T05:21:32.253Z,101318.9
2024-05-09T05:22:32.555Z,101315.75
2024-05-09T05:23:32.956Z,101315.7
2024-05-09T05:24:33.257Z,101308.03
2024-05-09T05:25:33.491Z,101312.86
2024-05-09T05:26:34.305Z,101314.79
2024-05-09T05:27:34.207Z,101310.53
2024-05-09T05:28:34.625Z,101312.97
2024-05-09T05:29:35.047Z,101308.69
2024-05-09T05:30:37.723Z,101309.47
2024-05-09T05:31:35.760Z,101309.77
2024-05-09T05:32:36.090Z,101311.81
2024-05-09T05:33:36.557Z,101307.8
2024-05-09T05:34:36.696Z,101309.07
2024-05-09T05:35:37.412Z,101307.23
2024-05-09T05:36:37.440Z,101307.09
2024-05-09T05:37:37.668Z,101310.33
2024-05-09T05:38:37.952Z,101310.45
2024-05-09T05:39:38.490Z,101307.44
2024-05-09T05:40:40.185Z,101308.12
2024-05-09T05:41:39.382Z,101305.58
2024-05-09T05:42:39.411Z,101308.48
2024-05-09T05:43:39.846Z,101306.8
2024-05-09T05:44:40.337Z,101306.86
2024-05-09T05:45:40.869Z,101304.81
2024-05-09T05:46:40.880Z,101306.81
2024-05-09T05:47:41.537Z,101305.09
2024-05-09T05:48:41.589Z,101303.34
2024-05-09T05:49:41.949Z,101306.89
2024-05-09T05:50:43.017Z,101305.26
2024-05-09T05:51:42.760Z,101306.25
2024-05-09T05:52:43.407Z,101306.1
2024-05-09T05:53:43.424Z,101303.97
2024-05-09T05:54:43.802Z,101302.34
2024-05-09T05:55:44.025Z,101303.38
2024-05-09T05:56:44.439Z,101306.88
2024-05-09T05:57:44.745Z,101302.7
2024-05-09T05:58:45.269Z,101304.84
2024-05-09T05:59:45.448Z,101304.19
2024-05-09T06:00:45.824Z,101305.53
2024-05-09T06:01:46.406Z,101303.77
2024-05-09T06:02:46.758Z,101300.27
2024-05-09T06:03:47.319Z,101303.91
2024-05-09T06:04:47.429Z,101306.92
2024-05-09T06:05:47.898Z,101305.09
2024-05-09T06:06:48.921Z,101304.79
2024-05-09T06:07:48.519Z,101304.9
2024-05-09T06:08:48.828Z,101305.55
2024-05-09T06:09:50.438Z,101305.88
2024-05-09T06:10:49.872Z,101307.89
2024-05-09T06:11:50.002Z,101309.16
2024-05-09T06:12:50.162Z,101304.55
2024-05-09T06:13:50.480Z,101306.73
2024-05-09T06:14:50.900Z,101308.44
2024-05-09T06:15:51.321Z,101315.39
2024-05-09T06:16:51.964Z,101309.84
2024-05-09T06:17:52.160Z,101307.62
2024-05-09T06:18:52.685Z,101307.16
2024-05-09T06:19:52.912Z,101305.22
2024-05-09T06:20:53.277Z,101304.44
2024-05-09T06:21:53.406Z,101306.32
2024-05-09T06:22:53.753Z,101305.59
2024-05-09T06:23:54.126Z,101309.81
2024-05-09T06:24:54.464Z,101303.72
2024-05-09T06:25:54.997Z,101303.28
2024-05-09T06:26:55.279Z,101302.32
2024-05-09T06:27:55.515Z,101297.34
2024-05-09T06:28:55.987Z,101299.7
2024-05-09T06:29:56.331Z,101298.55
2024-05-09T06:30:56.780Z,101298.16
2024-05-09T06:31:59.488Z,101297.79
2024-05-09T06:32:57.685Z,101295.59
2024-05-09T06:33:58.061Z,101293.2
2024-05-09T06:34:58.361Z,101287.66
2024-05-09T06:35:58.828Z,101291.56
2024-05-09T06:36:58.888Z,101289.8
2024-05-09T06:37:59.489Z,101285.46
2024-05-09T06:38:59.672Z,101287.12
2024-05-09T06:39:59.994Z,101286.42
2024-05-09T06:41:00.588Z,101287.28
2024-05-09T06:42:00.706Z,101286.48
2024-05-09T06:43:01.125Z,101286.75
2024-05-09T06:44:01.600Z,101278.84
2024-05-09T06:45:01.849Z,101276.7
2024-05-09T06:46:02.289Z,101278.89
2024-05-09T06:47:02.673Z,101276.22
2024-05-09T06:48:03.219Z,101274.81
2024-05-09T06:49:03.705Z,101273.66
2024-05-09T06:50:06.370Z,101270.97
2024-05-09T06:51:06.021Z,101266.36
2024-05-09T06:52:06.443Z,101264.5
2024-05-09T06:53:06.813Z,101261.81
2024-05-09T06:54:09.588Z,101261.84
2024-05-09T06:55:07.340Z,101262.05
2024-05-09T06:56:07.931Z,101256.81
2024-05-09T06:57:07.740Z,101255.62
2024-05-09T06:58:08.818Z,101255.73
2024-05-09T06:59:08.741Z,101256.08
2024-05-09T07:00:15.523Z,101250.8
2024-05-09T07:01:11.401Z,101245.92
2024-05-09T07:02:12.058Z,101247.48
2024-05-09T07:03:15.709Z,101246.56
2024-05-09T07:04:15.538Z,101241.44
2024-05-09T07:05:16.213Z,101242.99
2024-05-09T07:06:16.040Z,101243.52
2024-05-09T07:07:16.234Z,101241.16
2024-05-09T07:08:17.139Z,101238.27
2024-05-09T07:09:17.323Z,101235.08
2024-05-09T07:10:22.194Z,101235.53
2024-05-09T07:11:21.398Z,101235.88
2024-05-09T07:12:21.885Z,101233.81
2024-05-09T07:13:21.904Z,101231.61
2024-05-09T07:14:22.656Z,101233.14
2024-05-09T07:15:22.956Z,101231.12
2024-05-09T07:16:23.121Z,101226.59
2024-05-09T07:17:23.847Z,101227.19
2024-05-09T07:18:23.956Z,101230.75
2024-05-09T07:19:24.454Z,101229.73
2024-05-09T07:20:32.471Z,101226.23
2024-05-09T07:21:27.424Z,101224.95
2024-05-09T07:22:27.825Z,101218.71
2024-05-09T07:23:28.376Z,101215.75
2024-05-09T07:24:28.446Z,101218.08
2024-05-09T07:25:29.099Z,101214.08
2024-05-09T07:26:29.425Z,101211.44
2024-05-09T07:27:29.690Z,101212
2024-05-09T07:28:29.896Z,101214.14
2024-05-09T07:29:30.297Z,101216.78
2024-05-09T07:30:34.019Z,101216.12
2024-05-09T07:31:32.694Z,101214.78
2024-05-09T07:32:33.004Z,101215.3
2024-05-09T07:33:33.508Z,101211.33
2024-05-09T07:34:34.124Z,101211.14
2024-05-09T07:35:34.352Z,101207.6
2024-05-09T07:36:34.470Z,101210.84
2024-05-09T07:37:34.668Z,101205.77
2024-05-09T07:38:35.222Z,101210.1
2024-05-09T07:39:35.385Z,101212.56
2024-05-09T07:40:37.032Z,101207.16
2024-05-09T07:41:36.598Z,101207.84
2024-05-09T07:42:36.548Z,101209.11
2024-05-09T07:43:36.996Z,101200.75
2024-05-09T07:44:37.550Z,101206.3
2024-05-09T07:45:48.404Z,101203.78
2024-05-09T07:51:32.296Z,101201.91
2024-05-09T07:53:14.478Z,101195.41
2024-05-09T07:53:34.830Z,101193.93
2024-05-09T07:53:54.739Z,101188.78
2024-05-09T07:54:54.591Z,101187.8
2024-05-09T07:55:55.257Z,101185.61
2024-05-09T07:56:55.620Z,101189.31
2024-05-09T07:57:55.671Z,101185.95
2024-05-09T07:58:56.302Z,101183.81
2024-05-09T07:59:56.340Z,101180.33
2024-05-09T08:00:56.811Z,101177.78
2024-05-09T08:01:57.368Z,101181.52
2024-05-09T08:02:57.460Z,101179.77
2024-05-09T08:03:58.211Z,101174.61
2024-05-09T08:04:58.409Z,101168.28
2024-05-09T08:05:58.607Z,101170.77
2024-05-09T08:06:59.378Z,101169.02
2024-05-09T08:07:59.335Z,101170.88
2024-05-09T08:09:05.122Z,101169.28
2024-05-09T08:10:00.347Z,101171.91
2024-05-09T08:11:02.216Z,101166.17
2024-05-09T08:12:01.132Z,101168.75
2024-05-09T08:13:01.802Z,101170.89
2024-05-09T08:14:01.847Z,101167.5
2024-05-09T08:15:02.153Z,101163.52
2024-05-09T08:16:02.759Z,101164.12
2024-05-09T08:17:02.918Z,101169.5
2024-05-09T08:18:04.164Z,101162.88
2024-05-09T08:19:04.081Z,101163.92
2024-05-09T08:20:05.640Z,101169.63
2024-05-09T08:21:04.959Z,101163.98
2024-05-09T08:22:05.219Z,101160.64
2024-05-09T08:23:05.696Z,101157.22
2024-05-09T08:24:05.988Z,101161.12
2024-05-09T08:25:06.889Z,101158.55
2024-05-09T08:26:06.359Z,101153.81
2024-05-09T08:27:06.668Z,101144.73
2024-05-09T08:28:07.614Z,101147.29
2024-05-09T08:29:07.603Z,101145.6
2024-05-09T08:30:15.295Z,101152.53
2024-05-09T08:31:11.697Z,101147.42
2024-05-09T08:32:11.601Z,101140.78
2024-05-09T08:33:12.206Z,101137.29
2024-05-09T08:34:12.321Z,101136.92
2024-05-09T08:35:13.051Z,101136.14
2024-05-09T08:36:13.182Z,101133.29
2024-05-09T08:37:21.421Z,101132.09
2024-05-09T08:38:15.856Z,101126.59
2024-05-09T08:39:17.167Z,101123.12
2024-05-09T08:40:23.980Z,101127.89
2024-05-09T08:41:18.310Z,101118.34
2024-05-09T08:42:22.047Z,101115.12
2024-05-09T08:43:20.391Z,101128.36
2024-05-09T08:44:21.068Z,101112.72
2024-05-09T08:45:20.492Z,101109.62
2024-05-09T08:46:20.808Z,101108.11
2024-05-09T08:47:21.132Z,101116.59
2024-05-09T08:48:23.717Z,101105.83
2024-05-09T08:49:22.867Z,101101.78
2024-05-09T08:50:32.051Z,101109.39
2024-05-09T08:51:25.733Z,101108.93
2024-05-09T08:52:26.248Z,101106.34
2024-05-09T08:53:26.156Z,101104.42
2024-05-09T08:54:26.889Z,101103.31
2024-05-09T08:55:27.147Z,101102.73
2024-05-09T08:56:28.346Z,101096.67
2024-05-09T08:57:30.146Z,101099.56
2024-05-09T08:58:30.395Z,101099.36
2024-05-09T08:59:35.517Z,101103.97
2024-05-09T09:00:37.127Z,101110.26
2024-05-09T09:01:37.991Z,101105.53
2024-05-09T09:02:38.306Z,101104.58
2024-05-09T09:03:38.244Z,101101.48
2024-05-09T09:04:40.620Z,101097.62
2024-05-09T09:05:39.722Z,101094.8
2024-05-09T09:06:39.881Z,101091.27
2024-05-09T09:07:39.670Z,101091.8
2024-05-09T09:08:39.878Z,101084.08
2024-05-09T09:09:44.831Z,101090.05
2024-05-09T09:10:43.470Z,101089.77
2024-05-09T09:11:42.924Z,101092.85
2024-05-09T09:12:43.210Z,101087.29
2024-05-09T09:13:43.709Z,101092.53
2024-05-09T09:14:44.186Z,101094.2
2024-05-09T09:15:47.846Z,101089.69
2024-05-09T09:16:45.428Z,101081.05
2024-05-09T09:17:55.931Z,101084.38
2024-05-09T09:18:48.569Z,101076.73
2024-05-09T09:19:49.047Z,101074.59
2024-05-09T09:20:49.290Z,101076.63
2024-05-09T09:21:49.749Z,101073.06
2024-05-09T09:22:50.330Z,101063.95
2024-05-09T09:23:50.316Z,101066.78
2024-05-09T09:24:50.848Z,101066.42
2024-05-09T09:25:51.167Z,101062.91
2024-05-09T09:26:51.739Z,101063.22
2024-05-09T09:27:51.894Z,101061.44
2024-05-09T09:28:52.331Z,101064.55
2024-05-09T09:29:52.827Z,101064.71
2024-05-09T09:30:53.179Z,101059.95
2024-05-09T09:32:06.054Z,101060.56
2024-05-09T09:32:58.605Z,101068.88
2024-05-09T09:33:59.012Z,101061.05
2024-05-09T09:34:59.267Z,101056.25
2024-05-09T09:36:00.409Z,101060.29
2024-05-09T09:37:10.792Z,101052.67
2024-05-09T09:38:03.839Z,101049.3
2024-05-09T09:39:04.655Z,101046.73
2024-05-09T09:40:07.094Z,101045.8
2024-05-09T09:41:07.911Z,101043.57
2024-05-09T09:42:06.118Z,101036.11
2024-05-09T09:43:13.953Z,101029.61
2024-05-09T09:44:08.986Z,101029.22
2024-05-09T09:45:07.663Z,101036.31
2024-05-09T09:46:11.812Z,101032.03
2024-05-09T09:47:11.506Z,101030.34
2024-05-09T09:48:12.063Z,101027.95
2024-05-09T09:49:11.810Z,101017.14
2024-05-09T09:50:16.970Z,101021.62
2024-05-09T09:51:14.991Z,101024.73
2024-05-09T09:52:14.102Z,101018.88
2024-05-09T09:53:15.105Z,101016.59
2024-05-09T09:54:14.913Z,101018.66
2024-05-09T09:55:15.440Z,101022.45
2024-05-09T09:56:17.169Z,101017.04
2024-05-09T09:57:19.322Z,101018.7
2024-05-09T09:58:17.975Z,101014.16
2024-05-09T09:59:17.585Z,101008.11
2024-05-09T10:00:24.664Z,101013.73
2024-05-09T10:01:18.006Z,101015.75
2024-05-09T10:02:18.516Z,101013.98
2024-05-09T10:03:18.931Z,101010.74
2024-05-09T10:04:19.942Z,101012.97
2024-05-09T10:05:20.283Z,101008.09
2024-05-09T10:06:20.744Z,101012.34
2024-05-09T10:07:22.106Z,101009.97
2024-05-09T10:08:23.801Z,101008.31
2024-05-09T10:09:22.585Z,101004.26
2024-05-09T10:10:31.676Z,101003.88
2024-05-09T10:11:29.598Z,100999.52
2024-05-09T10:12:27.293Z,100997.25
2024-05-09T10:13:34.227Z,100997.92
2024-05-09T10:16:44.933Z,100994.17
2024-05-09T10:17:50.052Z,100994.11
2024-05-09T10:18:42.599Z,100994.92
2024-05-09T10:19:43.284Z,100993.3
2024-05-09T10:21:47.980Z,100985.79
2024-05-09T10:22:48.979Z,100981.54
2024-05-09T10:24:52.511Z,100973.66
2024-05-09T10:26:56.215Z,100975.33
2024-05-09T10:27:56.891Z,100974.3
2024-05-09T10:28:57.221Z,100972.36
2024-05-09T10:30:01.541Z,100972.95
2024-05-09T10:32:04.385Z,100965.09
2024-05-09T10:33:04.583Z,100969.66
2024-05-09T10:34:05.650Z,100964.82
2024-05-09T10:35:12.458Z,100963.47
2024-05-09T10:36:14.368Z,100966.88
2024-05-09T10:37:11.974Z,100965.88
2024-05-09T10:38:12.738Z,100959.27
2024-05-09T10:39:15.709Z,100957.97
2024-05-09T10:40:23.468Z,100955.94
2024-05-09T10:41:19.845Z,100959.05
2024-05-09T10:42:19.523Z,100968.47
2024-05-09T10:43:19.634Z,100956.03
2024-05-09T10:44:18.561Z,100960.18
2024-05-09T10:45:18.634Z,100957.83
2024-05-09T10:46:19.646Z,100956.03
2024-05-09T10:47:23.104Z,100954.14
2024-05-09T10:48:21.157Z,100948.11
2024-05-09T10:49:21.437Z,100950.75
2024-05-09T10:50:28.160Z,100949.05
2024-05-09T10:51:26.853Z,100943.59
2024-05-09T10:52:26.901Z,100944.88
2024-05-09T10:53:27.261Z,100944.95
2024-05-09T10:54:38.553Z,100943.62
2024-05-09T10:55:31.171Z,100941.36
2024-05-09T10:56:31.484Z,100937.93
2024-05-09T10:57:38.492Z,100939.66
2024-05-09T10:58:36.415Z,100940.61
2024-05-09T10:59:37.007Z,100939.67
2024-05-09T11:00:36.963Z,100936.08
2024-05-09T11:01:37.411Z,100936.2
2024-05-09T11:02:37.914Z,100936.84
2024-05-09T11:03:39.389Z,100933.98
2024-05-09T11:04:41.463Z,100931.28
2024-05-09T11:05:42.567Z,100937.64
2024-05-09T11:06:40.726Z,100931.22
2024-05-09T11:07:40.779Z,100927.94
2024-05-09T11:08:42.421Z,100925.88
2024-05-09T11:09:42.418Z,100928.45
2024-05-09T11:10:43.228Z,100921.83
2024-05-09T11:11:42.550Z,100925.29
2024-05-09T11:12:46.372Z,100926.52
2024-05-09T11:13:43.901Z,100926.61
2024-05-09T11:14:56.589Z,100916.23
2024-05-09T11:15:49.042Z,100920.22
2024-05-09T11:16:59.373Z,100918.6
2024-05-09T11:17:51.683Z,100922.92
2024-05-09T11:18:56.835Z,100916.7
2024-05-09T11:19:54.842Z,100916.39
2024-05-09T11:20:55.613Z,100915.44
2024-05-09T11:21:55.479Z,100910.7
2024-05-09T11:22:57.797Z,100911.78
2024-05-09T11:23:57.049Z,100909.58
2024-05-09T11:24:56.695Z,100905.19
2024-05-09T11:25:58.222Z,100907.41
2024-05-09T11:26:58.313Z,100905.03
2024-05-09T11:28:01.898Z,100902.8
2024-05-09T11:28:59.377Z,100899.05
2024-05-09T11:29:59.986Z,100904.78
2024-05-09T11:31:07.314Z,100901.53
2024-05-09T11:32:09.291Z,100897.78
2024-05-09T11:33:06.767Z,100898.11
2024-05-09T11:34:07.407Z,100895.23
2024-05-09T11:35:07.887Z,100894.28
2024-05-09T11:36:08.707Z,100891.52
2024-05-09T11:37:09.113Z,100890.41
2024-05-09T11:38:09.157Z,100888.78
2024-05-09T11:39:09.458Z,100890.84
2024-05-09T11:40:16.819Z,100891.55
2024-05-09T11:41:19.922Z,100886.14
2024-05-09T11:42:17.379Z,100885.08
2024-05-09T11:43:18.003Z,100887.41
2024-05-09T11:44:18.390Z,100877.48